sensor_id;sensor_type;location;lat;lon;timestamp;pressure;altitude;pressure_sealevel;temperature;humidity
74327;BME280;62745;51.060;13.786;2022-11-15T00:00:01;100340.06;;;7.38;91.27
74327;BME280;62745;51.060;13.786;2022-11-15T00:02:26;100342.06;;;7.36;91.39
74327;BME280;62745;51.060;13.786;2022-11-15T00:04:51;100322.16;;;7.32;91.39
74327;BME280;62745;51.060;13.786;2022-11-15T00:07:17;100330.94;;;7.32;91.56
74327;BME280;62745;51.060;13.786;2022-11-15T00:09:42;100333.09;;;7.37;91.48
74327;BME280;62745;51.060;13.786;2022-11-15T00:12:07;100342.06;;;7.36;91.42
74327;BME280;62745;51.060;13.786;2022-11-15T00:14:32;100337.91;;;7.33;91.59
74327;BME280;62745;51.060;13.786;2022-11-15T00:16:58;100330.44;;;7.37;91.66
74327;BME280;62745;51.060;13.786;2022-11-15T00:19:23;100324.81;;;7.32;91.75
74327;BME280;62745;51.060;13.786;2022-11-15T00:21:48;100317.16;;;7.29;91.80
74327;BME280;62745;51.060;13.786;2022-11-15T00:24:13;100310.56;;;7.24;91.96
74327;BME280;62745;51.060;13.786;2022-11-15T00:26:39;100311.56;;;7.23;91.70
74327;BME280;62745;51.060;13.786;2022-11-15T00:29:04;100320.63;;;7.37;91.62
74327;BME280;62745;51.060;13.786;2022-11-15T00:31:30;100326.13;;;7.36;91.38
74327;BME280;62745;51.060;13.786;2022-11-15T00:33:55;100328.94;;;7.34;91.53
74327;BME280;62745;51.060;13.786;2022-11-15T00:36:21;100324.28;;;7.36;91.45
74327;BME280;62745;51.060;13.786;2022-11-15T00:38:46;100324.28;;;7.36;91.46
74327;BME280;62745;51.060;13.786;2022-11-15T00:41:11;100302.22;;;7.28;91.35
74327;BME280;62745;51.060;13.786;2022-11-15T00:43:36;100316.31;;;7.36;91.61
74327;BME280;62745;51.060;13.786;2022-11-15T00:46:02;100319.31;;;7.33;91.54
74327;BME280;62745;51.060;13.786;2022-11-15T00:48:28;100313.81;;;7.35;91.41
74327;BME280;62745;51.060;13.786;2022-11-15T00:50:53;100319.66;;;7.30;91.65
74327;BME280;62745;51.060;13.786;2022-11-15T00:53:18;100300.91;;;7.15;91.58
74327;BME280;62745;51.060;13.786;2022-11-15T00:55:43;100318.69;;;7.23;92.27
74327;BME280;62745;51.060;13.786;2022-11-15T00:58:09;100315.03;;;7.24;91.96
74327;BME280;62745;51.060;13.786;2022-11-15T01:00:34;100310.38;;;7.18;91.98
74327;BME280;62745;51.060;13.786;2022-11-15T01:03:00;100323.66;;;7.18;92.29
74327;BME280;62745;51.060;13.786;2022-11-15T01:05:27;100305.25;;;7.08;92.62
74327;BME280;62745;51.060;13.786;2022-11-15T01:07:53;100305.22;;;7.16;92.56
74327;BME280;62745;51.060;13.786;2022-11-15T01:10:19;100307.41;;;7.13;92.51
74327;BME280;62745;51.060;13.786;2022-11-15T01:12:44;100296.59;;;7.14;92.41
74327;BME280;62745;51.060;13.786;2022-11-15T01:15:10;100300.09;;;7.15;92.44
74327;BME280;62745;51.060;13.786;2022-11-15T01:17:36;100294.59;;;7.16;92.44
74327;BME280;62745;51.060;13.786;2022-11-15T01:20:01;100286.31;;;7.11;91.94
74327;BME280;62745;51.060;13.786;2022-11-15T01:22:27;100303.72;;;7.30;92.00
74327;BME280;62745;51.060;13.786;2022-11-15T01:24:52;100304.88;;;7.19;92.05
74327;BME280;62745;51.060;13.786;2022-11-15T01:27:17;100298.91;;;7.17;92.42
74327;BME280;62745;51.060;13.786;2022-11-15T01:29:43;100306.53;;;7.20;92.12
74327;BME280;62745;51.060;13.786;2022-11-15T01:32:08;100301.09;;;7.14;92.38
74327;BME280;62745;51.060;13.786;2022-11-15T01:34:33;100293.13;;;7.14;92.35
74327;BME280;62745;51.060;13.786;2022-11-15T01:36:58;100284.84;;;7.09;92.29
74327;BME280;62745;51.060;13.786;2022-11-15T01:39:24;100285.63;;;7.17;92.14
74327;BME280;62745;51.060;13.786;2022-11-15T01:41:49;100282.81;;;7.19;91.93
74327;BME280;62745;51.060;13.786;2022-11-15T01:46:59;100272.00;;;7.20;92.01
74327;BME280;62745;51.060;13.786;2022-11-15T01:49:27;100280.66;;;7.22;91.96
74327;BME280;62745;51.060;13.786;2022-11-15T01:51:55;100272.34;;;7.17;92.36
74327;BME280;62745;51.060;13.786;2022-11-15T01:54:22;100264.72;;;7.14;92.23
74327;BME280;62745;51.060;13.786;2022-11-15T01:57:12;100268.38;;;7.13;92.08
74327;BME280;62745;51.060;13.786;2022-11-15T01:59:40;100261.56;;;7.19;92.16
74327;BME280;62745;51.060;13.786;2022-11-15T02:02:07;100265.22;;;7.18;92.07
74327;BME280;62745;51.060;13.786;2022-11-15T02:04:36;100256.41;;;7.17;92.48
74327;BME280;62745;51.060;13.786;2022-11-15T02:07:04;100247.13;;;7.13;92.46
74327;BME280;62745;51.060;13.786;2022-11-15T02:09:30;100250.13;;;7.10;92.82
74327;BME280;62745;51.060;13.786;2022-11-15T02:11:56;100245.16;;;7.07;92.18
74327;BME280;62745;51.060;13.786;2022-11-15T02:14:22;100259.91;;;7.18;92.53
74327;BME280;62745;51.060;13.786;2022-11-15T02:17:11;100259.25;;;7.16;92.25
74327;BME280;62745;51.060;13.786;2022-11-15T02:28:21;100249.31;;;7.10;92.45
74327;BME280;62745;51.060;13.786;2022-11-15T02:31:21;100248.00;;;7.06;92.78
74327;BME280;62745;51.060;13.786;2022-11-15T02:37:03;100233.72;;;7.07;92.62
74327;BME280;62745;51.060;13.786;2022-11-15T02:39:44;100240.34;;;7.11;92.28
74327;BME280;62745;51.060;13.786;2022-11-15T02:42:19;100221.56;;;7.04;92.62
74327;BME280;62745;51.060;13.786;2022-11-15T02:45:07;100216.13;;;7.06;92.06
74327;BME280;62745;51.060;13.786;2022-11-15T02:47:40;100210.63;;;7.07;92.35
74327;BME280;62745;51.060;13.786;2022-11-15T02:50:08;100210.63;;;7.07;92.21
74327;BME280;62745;51.060;13.786;2022-11-15T02:52:34;100199.84;;;7.09;92.44
74327;BME280;62745;51.060;13.786;2022-11-15T02:55:00;100205.81;;;7.03;92.43
74327;BME280;62745;51.060;13.786;2022-11-15T02:57:45;100206.16;;;7.00;92.53
74327;BME280;62745;51.060;13.786;2022-11-15T03:00:18;100185.94;;;6.90;92.31
74327;BME280;62745;51.060;13.786;2022-11-15T03:05:41;100204.16;;;7.02;92.05
74327;BME280;62745;51.060;13.786;2022-11-15T03:10:42;100196.38;;;7.00;92.12
74327;BME280;62745;51.060;13.786;2022-11-15T03:13:36;100196.34;;;7.08;91.73
74327;BME280;62745;51.060;13.786;2022-11-15T03:18:45;100194.19;;;7.04;91.48
74327;BME280;62745;51.060;13.786;2022-11-15T03:21:12;100188.06;;;7.03;91.71
74327;BME280;62745;51.060;13.786;2022-11-15T03:23:40;100172.16;;;6.87;92.04
74327;BME280;62745;51.060;13.786;2022-11-15T03:26:09;100189.22;;;7.01;91.74
74327;BME280;62745;51.060;13.786;2022-11-15T03:28:37;100187.91;;;6.97;92.18
74327;BME280;62745;51.060;13.786;2022-11-15T03:31:05;100180.81;;;6.89;92.39
74327;BME280;62745;51.060;13.786;2022-11-15T03:33:53;100165.72;;;6.81;92.27
74327;BME280;62745;51.060;13.786;2022-11-15T03:36:21;100165.06;;;6.79;92.57
74327;BME280;62745;51.060;13.786;2022-11-15T03:38:47;100176.47;;;6.88;92.53
74327;BME280;62745;51.060;13.786;2022-11-15T03:41:23;100170.50;;;6.86;92.50
74327;BME280;62745;51.060;13.786;2022-11-15T03:44:00;100177.63;;;6.93;92.86
74327;BME280;62745;51.060;13.786;2022-11-15T03:46:35;100174.00;;;6.86;92.37
74327;BME280;62745;51.060;13.786;2022-11-15T03:49:07;100168.50;;;6.88;92.11
74327;BME280;62745;51.060;13.786;2022-11-15T03:51:34;100171.47;;;7.01;92.14
74327;BME280;62745;51.060;13.786;2022-11-15T03:54:03;100178.50;;;6.78;92.75
74327;BME280;62745;51.060;13.786;2022-11-15T03:56:28;100173.19;;;6.70;92.61
74327;BME280;62745;51.060;13.786;2022-11-15T03:58:54;100174.19;;;6.77;92.79
74327;BME280;62745;51.060;13.786;2022-11-15T04:01:19;100170.22;;;6.73;92.96
74327;BME280;62745;51.060;13.786;2022-11-15T04:03:44;100167.06;;;6.69;92.79
74327;BME280;62745;51.060;13.786;2022-11-15T04:06:09;100178.69;;;6.68;93.01
74327;BME280;62745;51.060;13.786;2022-11-15T04:08:35;100180.34;;;6.77;92.63
74327;BME280;62745;51.060;13.786;2022-11-15T04:11:00;100170.06;;;6.66;92.93
74327;BME280;62745;51.060;13.786;2022-11-15T04:13:25;100161.13;;;6.59;93.36
74327;BME280;62745;51.060;13.786;2022-11-15T04:15:51;100164.72;;;6.82;92.76
74327;BME280;62745;51.060;13.786;2022-11-15T04:18:16;100166.72;;;6.80;92.65
74327;BME280;62745;51.060;13.786;2022-11-15T04:20:41;100160.91;;;6.77;92.26
74327;BME280;62745;51.060;13.786;2022-11-15T04:23:25;100159.63;;;6.64;93.01
74327;BME280;62745;51.060;13.786;2022-11-15T04:26:12;100165.75;;;6.73;92.65
74327;BME280;62745;51.060;13.786;2022-11-15T04:28:39;100157.44;;;6.68;92.92
74327;BME280;62745;51.060;13.786;2022-11-15T04:31:25;100158.13;;;6.62;93.16
74327;BME280;62745;51.060;13.786;2022-11-15T04:33:50;100153.81;;;6.61;92.90
74327;BME280;62745;51.060;13.786;2022-11-15T04:36:15;100142.84;;;6.64;92.73
74327;BME280;62745;51.060;13.786;2022-11-15T04:38:59;100143.34;;;6.68;92.24
74327;BME280;62745;51.060;13.786;2022-11-15T04:41:25;100158.44;;;6.67;93.09
74327;BME280;62745;51.060;13.786;2022-11-15T04:43:50;100146.19;;;6.58;93.26
74327;BME280;62745;51.060;13.786;2022-11-15T04:46:15;100150.50;;;6.51;92.68
74327;BME280;62745;51.060;13.786;2022-11-15T04:48:40;100148.84;;;6.50;93.34
74327;BME280;62745;51.060;13.786;2022-11-15T04:51:06;100139.06;;;6.50;93.09
74327;BME280;62745;51.060;13.786;2022-11-15T04:53:31;100144.22;;;6.44;93.38
74327;BME280;62745;51.060;13.786;2022-11-15T04:55:56;100140.75;;;6.43;93.92
74327;BME280;62745;51.060;13.786;2022-11-15T04:58:21;100155.31;;;6.47;94.33
74327;BME280;62745;51.060;13.786;2022-11-15T05:00:47;100153.69;;;6.46;93.90
74327;BME280;62745;51.060;13.786;2022-11-15T05:03:12;100140.41;;;6.38;94.01
74327;BME280;62745;51.060;13.786;2022-11-15T05:05:57;100139.56;;;6.38;93.68
74327;BME280;62745;51.060;13.786;2022-11-15T05:08:22;100145.56;;;6.40;92.95
74327;BME280;62745;51.060;13.786;2022-11-15T05:10:48;100136.94;;;6.29;93.36
74327;BME280;62745;51.060;13.786;2022-11-15T05:13:13;100134.97;;;6.23;93.98
74327;BME280;62745;51.060;13.786;2022-11-15T05:15:38;100124.03;;;6.10;93.90
74327;BME280;62745;51.060;13.786;2022-11-15T05:18:04;100134.97;;;6.07;93.92
74327;BME280;62745;51.060;13.786;2022-11-15T05:20:29;100126.19;;;6.15;93.80
74327;BME280;62745;51.060;13.786;2022-11-15T05:22:54;100140.59;;;6.20;94.19
74327;BME280;62745;51.060;13.786;2022-11-15T05:25:22;100139.75;;;6.20;94.42
74327;BME280;62745;51.060;13.786;2022-11-15T05:27:47;100129.97;;;6.20;94.25
74327;BME280;62745;51.060;13.786;2022-11-15T05:30:13;100124.38;;;6.07;94.03
74327;BME280;62745;51.060;13.786;2022-11-15T05:32:38;100123.72;;;6.05;94.43
74327;BME280;62745;51.060;13.786;2022-11-15T05:35:07;100132.78;;;6.02;94.96
74327;BME280;62745;51.060;13.786;2022-11-15T05:37:33;100124.38;;;6.07;95.08
74327;BME280;62745;51.060;13.786;2022-11-15T05:39:58;100133.47;;;6.04;95.10
74327;BME280;62745;51.060;13.786;2022-11-15T05:42:25;100123.03;;;5.95;95.41
74327;BME280;62745;51.060;13.786;2022-11-15T05:44:51;100126.34;;;5.97;95.51
74327;BME280;62745;51.060;13.786;2022-11-15T05:47:19;100126.03;;;5.92;94.98
74327;BME280;62745;51.060;13.786;2022-11-15T05:49:49;100132.50;;;6.06;96.11
74327;BME280;62745;51.060;13.786;2022-11-15T05:52:18;100131.97;;;6.02;95.55
74327;BME280;62745;51.060;13.786;2022-11-15T05:54:45;100129.66;;;5.99;95.30
74327;BME280;62745;51.060;13.786;2022-11-15T05:57:10;100133.31;;;5.98;95.26
74327;BME280;62745;51.060;13.786;2022-11-15T05:59:36;100136.44;;;6.01;93.94
74327;BME280;62745;51.060;13.786;2022-11-15T06:02:02;100132.81;;;5.94;95.01
74327;BME280;62745;51.060;13.786;2022-11-15T06:04:27;100127.69;;;5.93;95.56
74327;BME280;62745;51.060;13.786;2022-11-15T06:06:53;100115.75;;;5.97;95.12
74327;BME280;62745;51.060;13.786;2022-11-15T06:09:24;100134.97;;;6.23;94.83
74327;BME280;62745;51.060;13.786;2022-11-15T06:11:53;100131.66;;;6.05;94.27
74327;BME280;62745;51.060;13.786;2022-11-15T06:14:18;100133.97;;;6.00;94.47
74327;BME280;62745;51.060;13.786;2022-11-15T06:16:43;100122.38;;;5.93;94.31
74327;BME280;62745;51.060;13.786;2022-11-15T06:19:09;100116.53;;;5.81;94.39
74327;BME280;62745;51.060;13.786;2022-11-15T06:21:34;100136.63;;;5.92;94.60
74327;BME280;62745;51.060;13.786;2022-11-15T06:24:00;100136.13;;;5.96;95.11
74327;BME280;62745;51.060;13.786;2022-11-15T06:26:25;100129.81;;;5.89;95.16
74327;BME280;62745;51.060;13.786;2022-11-15T06:28:50;100133.59;;;5.79;95.39
74327;BME280;62745;51.060;13.786;2022-11-15T06:31:15;100136.56;;;5.76;95.93
74327;BME280;62745;51.060;13.786;2022-11-15T06:33:41;100130.91;;;5.70;96.29
74327;BME280;62745;51.060;13.786;2022-11-15T06:36:09;100147.19;;;5.76;96.79
74327;BME280;62745;51.060;13.786;2022-11-15T06:38:35;100144.84;;;5.72;96.48
74327;BME280;62745;51.060;13.786;2022-11-15T06:41:05;100150.28;;;5.71;96.90
74327;BME280;62745;51.060;13.786;2022-11-15T06:43:30;100150.47;;;5.69;96.97
74327;BME280;62745;51.060;13.786;2022-11-15T06:46:00;100148.50;;;5.71;96.57
74327;BME280;62745;51.060;13.786;2022-11-15T06:48:27;100137.03;;;5.71;96.26
74327;BME280;62745;51.060;13.786;2022-11-15T06:50:57;100151.47;;;5.77;95.14
74327;BME280;62745;51.060;13.786;2022-11-15T06:53:23;100143.19;;;5.71;95.17
74327;BME280;62745;51.060;13.786;2022-11-15T06:55:49;100151.97;;;5.72;95.84
74327;BME280;62745;51.060;13.786;2022-11-15T06:58:14;100147.00;;;5.77;96.92
74327;BME280;62745;51.060;13.786;2022-11-15T07:00:40;100149.16;;;5.82;96.69
74327;BME280;62745;51.060;13.786;2022-11-15T07:03:06;100138.44;;;5.91;96.60
74327;BME280;62745;51.060;13.786;2022-11-15T07:05:31;100153.38;;;6.09;96.08
74327;BME280;62745;51.060;13.786;2022-11-15T07:07:57;100147.06;;;6.10;95.56
74327;BME280;62745;51.060;13.786;2022-11-15T07:10:23;100147.22;;;6.24;94.88
74327;BME280;62745;51.060;13.786;2022-11-15T07:12:52;100132.78;;;6.19;95.00
74327;BME280;62745;51.060;13.786;2022-11-15T07:15:19;100129.66;;;6.23;94.58
74327;BME280;62745;51.060;13.786;2022-11-15T07:17:45;100143.41;;;6.35;94.18
74327;BME280;62745;51.060;13.786;2022-11-15T07:20:11;100154.00;;;6.43;93.44
74327;BME280;62745;51.060;13.786;2022-11-15T07:22:36;100155.66;;;6.60;93.31
74327;BME280;62745;51.060;13.786;2022-11-15T07:25:02;100160.09;;;6.68;93.35
74327;BME280;62745;51.060;13.786;2022-11-15T07:27:28;100144.66;;;6.80;92.81
74327;BME280;62745;51.060;13.786;2022-11-15T07:29:53;100154.69;;;7.09;91.68
74327;BME280;62745;51.060;13.786;2022-11-15T07:32:18;100159.53;;;7.36;90.59
74327;BME280;62745;51.060;13.786;2022-11-15T07:34:43;100160.53;;;7.35;90.65
74327;BME280;62745;51.060;13.786;2022-11-15T07:37:10;100148.03;;;7.44;90.31
74327;BME280;62745;51.060;13.786;2022-11-15T07:39:36;100149.00;;;7.51;89.29
74327;BME280;62745;51.060;13.786;2022-11-15T07:42:01;100154.84;;;7.69;89.05
74327;BME280;62745;51.060;13.786;2022-11-15T07:44:45;100164.81;;;7.75;88.69
74327;BME280;62745;51.060;13.786;2022-11-15T07:47:10;100153.63;;;7.80;88.35
74327;BME280;62745;51.060;13.786;2022-11-15T07:49:35;100162.50;;;7.95;87.34
74327;BME280;62745;51.060;13.786;2022-11-15T07:52:01;100155.06;;;8.13;86.35
74327;BME280;62745;51.060;13.786;2022-11-15T07:54:26;100156.63;;;8.23;86.65
74327;BME280;62745;51.060;13.786;2022-11-15T07:56:51;100150.56;;;8.37;85.17
74327;BME280;62745;51.060;13.786;2022-11-15T07:59:17;100149.31;;;8.48;84.87
74327;BME280;62745;51.060;13.786;2022-11-15T08:01:42;100143.25;;;8.54;84.18
74327;BME280;62745;51.060;13.786;2022-11-15T08:04:07;100147.56;;;8.69;84.15
74327;BME280;62745;51.060;13.786;2022-11-15T08:06:32;100145.47;;;8.80;83.57
74327;BME280;62745;51.060;13.786;2022-11-15T08:08:58;100140.06;;;8.88;83.43
74327;BME280;62745;51.060;13.786;2022-11-15T08:11:23;100147.84;;;9.04;82.38
74327;BME280;62745;51.060;13.786;2022-11-15T08:13:48;100148.41;;;9.29;82.06
74327;BME280;62745;51.060;13.786;2022-11-15T08:16:13;100146.81;;;9.34;81.00
74327;BME280;62745;51.060;13.786;2022-11-15T08:18:39;100144.38;;;9.54;80.47
74327;BME280;62745;51.060;13.786;2022-11-15T08:21:04;100135.47;;;9.62;79.83
74327;BME280;62745;51.060;13.786;2022-11-15T08:23:30;100131.81;;;9.70;79.03
74327;BME280;62745;51.060;13.786;2022-11-15T08:26:00;100124.78;;;9.83;78.49
74327;BME280;62745;51.060;13.786;2022-11-15T08:28:26;100127.22;;;10.00;77.36
74327;BME280;62745;51.060;13.786;2022-11-15T08:30:51;100130.19;;;10.11;76.74
74327;BME280;62745;51.060;13.786;2022-11-15T08:33:16;100120.03;;;10.21;76.37
74327;BME280;62745;51.060;13.786;2022-11-15T08:35:42;100129.28;;;10.47;75.77
74327;BME280;62745;51.060;13.786;2022-11-15T08:38:08;100128.25;;;10.48;74.81
74327;BME280;62745;51.060;13.786;2022-11-15T08:40:34;100136.84;;;10.43;74.58
74327;BME280;62745;51.060;13.786;2022-11-15T08:43:00;100141.91;;;10.60;74.19
74327;BME280;62745;51.060;13.786;2022-11-15T08:45:27;100142.56;;;10.68;73.84
74327;BME280;62745;51.060;13.786;2022-11-15T08:47:53;100132.13;;;10.73;73.99
74327;BME280;62745;51.060;13.786;2022-11-15T08:50:18;100125.59;;;10.82;74.37
74327;BME280;62745;51.060;13.786;2022-11-15T08:52:43;100117.03;;;10.94;72.77
74327;BME280;62745;51.060;13.786;2022-11-15T08:55:08;100123.44;;;10.99;72.43
74327;BME280;62745;51.060;13.786;2022-11-15T08:57:34;100110.06;;;10.99;73.01
74327;BME280;62745;51.060;13.786;2022-11-15T08:59:59;100106.88;;;11.24;71.77
74327;BME280;62745;51.060;13.786;2022-11-15T09:02:24;100119.94;;;11.53;71.78
74327;BME280;62745;51.060;13.786;2022-11-15T09:04:49;100107.38;;;11.54;71.01
74327;BME280;62745;51.060;13.786;2022-11-15T09:07:15;100117.09;;;11.74;70.41
74327;BME280;62745;51.060;13.786;2022-11-15T09:09:40;100108.22;;;11.54;70.69
74327;BME280;62745;51.060;13.786;2022-11-15T09:12:06;100104.97;;;11.72;70.37
74327;BME280;62745;51.060;13.786;2022-11-15T09:14:32;100112.88;;;12.13;69.84
74327;BME280;62745;51.060;13.786;2022-11-15T09:16:58;100096.19;;;11.98;68.92
74327;BME280;62745;51.060;13.786;2022-11-15T09:19:24;100109.78;;;11.96;69.20
74327;BME280;62745;51.060;13.786;2022-11-15T09:21:49;100114.91;;;11.85;69.28
74327;BME280;62745;51.060;13.786;2022-11-15T09:24:15;100106.47;;;12.21;68.81
74327;BME280;62745;51.060;13.786;2022-11-15T09:26:40;100100.09;;;12.28;68.15
74327;BME280;62745;51.060;13.786;2022-11-15T09:29:06;100098.25;;;12.22;68.50
74327;BME280;62745;51.060;13.786;2022-11-15T09:31:31;100097.22;;;12.30;68.40
74327;BME280;62745;51.060;13.786;2022-11-15T09:33:56;100099.66;;;12.58;67.80
74327;BME280;62745;51.060;13.786;2022-11-15T09:36:22;100095.56;;;12.49;66.99
74327;BME280;62745;51.060;13.786;2022-11-15T09:38:47;100091.81;;;12.63;66.90
74327;BME280;62745;51.060;13.786;2022-11-15T09:43:47;100096.06;;;12.90;66.38
74327;BME280;62745;51.060;13.786;2022-11-15T09:48:57;100098.16;;;12.82;65.85
74327;BME280;62745;51.060;13.786;2022-11-15T09:51:37;100094.00;;;12.92;65.82
74327;BME280;62745;51.060;13.786;2022-11-15T09:54:21;100088.72;;;12.66;66.21
74327;BME280;62745;51.060;13.786;2022-11-15T09:56:50;100084.56;;;12.83;65.82
74327;BME280;62745;51.060;13.786;2022-11-15T09:59:43;100079.50;;;13.07;65.07
74327;BME280;62745;51.060;13.786;2022-11-15T10:04:49;100082.75;;;13.29;64.45
74327;BME280;62745;51.060;13.786;2022-11-15T10:07:32;100075.88;;;13.39;64.25
74327;BME280;62745;51.060;13.786;2022-11-15T10:10:15;100067.72;;;13.21;64.08
74327;BME280;62745;51.060;13.786;2022-11-15T10:12:48;100077.44;;;13.09;64.61
74327;BME280;62745;51.060;13.786;2022-11-15T10:15:16;100079.78;;;13.43;63.88
74327;BME280;62745;51.060;13.786;2022-11-15T10:20:55;100065.13;;;14.02;61.78
74327;BME280;62745;51.060;13.786;2022-11-15T10:23:23;100044.13;;;13.68;62.61
74327;BME280;62745;51.060;13.786;2022-11-15T10:25:51;100055.31;;;13.90;62.90
74327;BME280;62745;51.060;13.786;2022-11-15T10:28:28;100055.56;;;14.13;61.73
74327;BME280;62745;51.060;13.786;2022-11-15T10:30:56;100049.63;;;14.29;60.96
74327;BME280;62745;51.060;13.786;2022-11-15T10:33:27;100039.81;;;13.92;62.07
74327;BME280;62745;51.060;13.786;2022-11-15T10:44:08;100031.59;;;14.11;61.46
74327;BME280;62745;51.060;13.786;2022-11-15T10:46:40;100018.38;;;14.10;61.46
74327;BME280;62745;51.060;13.786;2022-11-15T10:49:23;100029.50;;;13.89;61.98
74327;BME280;62745;51.060;13.786;2022-11-15T10:51:59;100013.25;;;13.83;62.27
74327;BME280;62745;51.060;13.786;2022-11-15T10:54:33;100019.06;;;14.24;61.24
74327;BME280;62745;51.060;13.786;2022-11-15T10:57:06;100016.56;;;14.04;61.15
74327;BME280;62745;51.060;13.786;2022-11-15T10:59:35;100025.13;;;14.19;60.90
74327;BME280;62745;51.060;13.786;2022-11-15T11:02:02;100018.63;;;14.27;61.16
74327;BME280;62745;51.060;13.786;2022-11-15T11:04:27;100009.59;;;14.39;60.67
74327;BME280;62745;51.060;13.786;2022-11-15T11:06:58;100006.06;;;14.46;60.31
74327;BME280;62745;51.060;13.786;2022-11-15T11:09:34;100001.91;;;14.43;59.97
74327;BME280;62745;51.060;13.786;2022-11-15T11:12:01;100002.88;;;14.12;61.27
74327;BME280;62745;51.060;13.786;2022-11-15T11:14:29;99995.34;;;14.39;60.33
74327;BME280;62745;51.060;13.786;2022-11-15T11:17:11;99986.75;;;13.87;61.24
74327;BME280;62745;51.060;13.786;2022-11-15T11:28:04;99962.97;;;14.34;59.98
74327;BME280;62745;51.060;13.786;2022-11-15T11:37:02;99956.84;;;15.12;58.39
74327;BME280;62745;51.060;13.786;2022-11-15T11:42:15;99948.75;;;15.53;56.84
74327;BME280;62745;51.060;13.786;2022-11-15T11:44:55;99949.16;;;15.27;56.83
74327;BME280;62745;51.060;13.786;2022-11-15T11:47:31;99943.09;;;14.71;58.08
74327;BME280;62745;51.060;13.786;2022-11-15T11:50:10;99952.53;;;14.62;58.65
74327;BME280;62745;51.060;13.786;2022-11-15T11:52:44;99949.03;;;14.92;57.84
74327;BME280;62745;51.060;13.786;2022-11-15T11:55:16;99939.59;;;15.01;57.54
74327;BME280;62745;51.060;13.786;2022-11-15T11:58:33;99944.09;;;15.60;56.18
74327;BME280;62745;51.060;13.786;2022-11-15T12:01:10;99932.78;;;15.82;54.79
74327;BME280;62745;51.060;13.786;2022-11-15T12:04:14;99935.94;;;16.54;53.28
74327;BME280;62745;51.060;13.786;2022-11-15T12:06:48;99926.78;;;16.15;53.33
74327;BME280;62745;51.060;13.786;2022-11-15T12:11:59;99924.78;;;16.10;54.25
74327;BME280;62745;51.060;13.786;2022-11-15T12:14:34;99918.44;;;16.16;53.82
74327;BME280;62745;51.060;13.786;2022-11-15T12:17:02;99881.41;;;16.64;52.13
74327;BME280;62745;51.060;13.786;2022-11-15T12:19:29;99905.97;;;17.07;51.10
74327;BME280;62745;51.060;13.786;2022-11-15T12:22:10;99894.44;;;17.29;49.83
74327;BME280;62745;51.060;13.786;2022-11-15T12:30:38;99892.47;;;17.07;50.59
74327;BME280;62745;51.060;13.786;2022-11-15T12:33:29;99892.09;;;17.83;49.40
74327;BME280;62745;51.060;13.786;2022-11-15T12:36:01;99879.16;;;17.51;49.25
74327;BME280;62745;51.060;13.786;2022-11-15T12:41:18;99871.06;;;16.61;51.27
74327;BME280;62745;51.060;13.786;2022-11-15T12:44:00;99853.97;;;16.67;51.64
74327;BME280;62745;51.060;13.786;2022-11-15T12:53:53;99867.47;;;16.55;51.58
74327;BME280;62745;51.060;13.786;2022-11-15T12:56:20;99866.59;;;16.95;51.06
74327;BME280;62745;51.060;13.786;2022-11-15T12:59:00;99863.22;;;17.33;49.52
74327;BME280;62745;51.060;13.786;2022-11-15T13:04:21;99862.03;;;17.12;50.24
74327;BME280;62745;51.060;13.786;2022-11-15T13:06:49;99859.81;;;16.92;50.52
74327;BME280;62745;51.060;13.786;2022-11-15T13:12:00;99855.25;;;17.09;50.16
74327;BME280;62745;51.060;13.786;2022-11-15T13:17:56;99844.06;;;17.51;48.89
74327;BME280;62745;51.060;13.786;2022-11-15T13:20:31;99833.97;;;18.02;47.61
74327;BME280;62745;51.060;13.786;2022-11-15T13:31:01;99838.53;;;17.63;48.52
74327;BME280;62745;51.060;13.786;2022-11-15T13:33:31;99840.13;;;17.08;49.65
74327;BME280;62745;51.060;13.786;2022-11-15T13:35:59;99842.25;;;16.90;49.78
74327;BME280;62745;51.060;13.786;2022-11-15T13:38:29;99840.22;;;17.13;49.51
74327;BME280;62745;51.060;13.786;2022-11-15T13:40:56;99844.56;;;17.14;49.75
74327;BME280;62745;51.060;13.786;2022-11-15T13:46:27;99840.69;;;17.44;48.63
74327;BME280;62745;51.060;13.786;2022-11-15T13:54:06;99836.88;;;16.21;51.81
74327;BME280;62745;51.060;13.786;2022-11-15T13:56:33;99836.66;;;16.11;52.10
74327;BME280;62745;51.060;13.786;2022-11-15T13:59:00;99826.78;;;15.53;53.38
74327;BME280;62745;51.060;13.786;2022-11-15T14:01:28;99830.75;;;15.15;54.49
74327;BME280;62745;51.060;13.786;2022-11-15T14:03:58;99827.72;;;14.70;55.88
74327;BME280;62745;51.060;13.786;2022-11-15T14:06:25;99824.97;;;14.58;56.75
74327;BME280;62745;51.060;13.786;2022-11-15T14:11:36;99816.59;;;14.66;56.79
74327;BME280;62745;51.060;13.786;2022-11-15T14:16:40;99814.47;;;14.38;57.47
74327;BME280;62745;51.060;13.786;2022-11-15T14:19:12;99817.44;;;14.19;57.93
74327;BME280;62745;51.060;13.786;2022-11-15T14:24:39;99823.91;;;14.29;57.98
74327;BME280;62745;51.060;13.786;2022-11-15T14:27:19;99817.81;;;14.04;58.52
74327;BME280;62745;51.060;13.786;2022-11-15T14:29:45;99814.38;;;14.15;58.32
74327;BME280;62745;51.060;13.786;2022-11-15T14:32:17;99820.75;;;13.84;59.60
74327;BME280;62745;51.060;13.786;2022-11-15T14:34:43;99813.66;;;13.90;59.65
74327;BME280;62745;51.060;13.786;2022-11-15T14:37:24;99806.56;;;13.77;60.35
74327;BME280;62745;51.060;13.786;2022-11-15T14:39:51;99809.22;;;13.59;60.77
74327;BME280;62745;51.060;13.786;2022-11-15T14:42:17;99805.34;;;13.36;60.84
74327;BME280;62745;51.060;13.786;2022-11-15T14:44:43;99805.81;;;13.02;61.57
74327;BME280;62745;51.060;13.786;2022-11-15T14:47:08;99803.44;;;12.93;62.62